Time;durP1;ratioP1;P1;durP2;ratioP2;P2;SDS_P1;SDS_P2;PMS_P1;PMS_P2;Temp;Humidity;BMP_temperature;BMP_pressure;BME280_temperature;BME280_humidity;BME280_pressure;Samples;Min_cycle;Max_cycle;Signal;HPM_P1;HPM_P2
2023/05/24 00:00:41;;;;;;;12.40;5.77;;;15.60;66.80;;;;;;5078947;28;21061;-62
2023/05/24 00:03:24;;;;;;;12.80;5.90;;;15.50;66.80;;;;;;5076255;28;20522;-62
2023/05/24 00:06:09;;;;;;;13.00;5.40;;;15.40;66.90;;;;;;5079508;28;20473;-62
2023/05/24 00:08:44;;;;;;;10.30;6.27;;;15.40;66.90;;;;;;5077569;28;20507;-62
2023/05/24 00:11:18;;;;;;;9.33;5.10;;;15.30;67.00;;;;;;5079288;28;20532;-62
2023/05/24 00:13:51;;;;;;;14.23;6.40;;;15.30;67.00;;;;;;5081520;28;20549;-62
2023/05/24 00:16:25;;;;;;;11.90;5.70;;;15.20;67.00;;;;;;5085505;28;20460;-62
2023/05/24 00:19:06;;;;;;;11.03;5.40;;;15.20;67.20;;;;;;5082691;28;21011;-63
2023/05/24 00:21:39;;;;;;;11.83;6.40;;;15.20;67.30;;;;;;5074314;28;20545;-62
2023/05/24 00:24:15;;;;;;;11.87;5.30;;;15.10;67.30;;;;;;5081387;28;20514;-62
2023/05/24 00:26:48;;;;;;;13.73;6.03;;;15.10;67.50;;;;;;5081671;28;20468;-62
2023/05/24 00:29:22;;;;;;;12.53;5.90;;;15.10;67.60;;;;;;5083206;28;20483;-62
2023/05/24 00:31:53;;;;;;;10.00;5.60;;;15.00;67.60;;;;;;5083907;28;20487;-63
2023/05/24 00:34:32;;;;;;;11.90;5.53;;;15.00;67.70;;;;;;5082937;28;21192;-62
2023/05/24 00:37:06;;;;;;;10.70;5.40;;;15.00;67.70;;;;;;5085308;28;20450;-62
2023/05/24 00:39:38;;;;;;;12.17;5.93;;;15.00;67.80;;;;;;5076200;28;20502;-62
2023/05/24 00:42:13;;;;;;;15.20;5.80;;;15.00;67.80;;;;;;5085258;28;20458;-62
2023/05/24 00:44:54;;;;;;;15.07;5.70;;;15.00;67.90;;;;;;5080062;28;20467;-62
2023/05/24 00:47:26;;;;;;;12.50;6.87;;;15.10;68.00;;;;;;5082566;28;20471;-62
2023/05/24 00:50:15;;;;;;;13.63;6.60;;;15.10;68.00;;;;;;5079236;28;20471;-62
2023/05/24 00:52:53;;;;;;;11.03;5.60;;;15.10;68.00;;;;;;5084025;28;20989;-62
2023/05/24 00:55:26;;;;;;;13.03;6.30;;;15.10;68.00;;;;;;5078856;28;20998;-62
2023/05/24 00:57:57;;;;;;;11.80;6.37;;;15.10;68.00;;;;;;5082973;28;20514;-63
2023/05/24 01:00:30;;;;;;;13.83;5.73;;;15.20;68.10;;;;;;5079354;28;20545;-62
2023/05/24 01:03:09;;;;;;;11.17;5.33;;;15.20;68.10;;;;;;5082025;28;21297;-62
2023/05/24 01:05:45;;;;;;;11.47;5.30;;;15.20;68.00;;;;;;5081587;28;20459;-62
2023/05/24 01:09:11;;;;;;;15.17;6.33;;;15.10;68.00;;;;;;5082907;28;20459;-63
2023/05/24 01:11:58;;;;;;;13.53;6.10;;;15.10;68.10;;;;;;5076770;28;20495;-62
2023/05/24 01:14:39;;;;;;;14.73;6.33;;;15.10;68.10;;;;;;5080317;28;20454;-62
2023/05/24 01:17:17;;;;;;;10.93;5.87;;;15.10;68.10;;;;;;5081736;28;20453;-62
2023/05/24 01:20:00;;;;;;;12.53;5.33;;;15.10;68.10;;;;;;5082022;28;20490;-62
2023/05/24 01:23:18;;;;;;;14.40;5.90;;;15.10;68.20;;;;;;5079394;28;20788;-62
2023/05/24 01:26:23;;;;;;;13.23;5.70;;;15.10;68.20;;;;;;5080046;28;20474;-62
2023/05/24 01:29:01;;;;;;;12.50;5.30;;;15.00;68.20;;;;;;5078292;28;20473;-63
2023/05/24 01:31:33;;;;;;;12.60;5.03;;;15.00;68.20;;;;;;5078001;28;21196;-62
2023/05/24 01:34:04;;;;;;;12.20;6.87;;;15.00;68.30;;;;;;5089578;28;20460;-62
2023/05/24 01:36:36;;;;;;;10.17;6.07;;;14.90;68.30;;;;;;5080028;28;20547;-62
2023/05/24 01:42:09;;;;;;;11.43;5.90;;;14.90;68.50;;;;;;5079866;28;20461;-62
2023/05/24 01:45:03;;;;;;;13.20;5.60;;;14.80;68.70;;;;;;5084708;28;21152;-63
2023/05/24 01:47:55;;;;;;;11.43;6.00;;;14.80;68.80;;;;;;5082847;28;20516;-64
2023/05/24 01:50:31;;;;;;;17.43;6.17;;;14.80;68.80;;;;;;5085296;28;20469;-63
2023/05/24 01:53:07;;;;;;;13.40;5.90;;;14.80;68.80;;;;;;5082020;28;20548;-63
2023/05/24 01:55:42;;;;;;;10.77;5.93;;;14.80;68.90;;;;;;5086170;28;20776;-62
2023/05/24 01:58:15;;;;;;;12.20;5.83;;;14.80;68.90;;;;;;5082485;28;20449;-63
2023/05/24 02:00:54;;;;;;;14.43;6.30;;;14.90;68.90;;;;;;5090105;28;20476;-63
2023/05/24 02:03:28;;;;;;;12.00;6.23;;;14.80;68.90;;;;;;5086723;28;20556;-63
2023/05/24 02:06:14;;;;;;;11.50;5.70;;;14.80;68.90;;;;;;5105403;28;20462;-62
2023/05/24 02:08:45;;;;;;;12.70;5.90;;;14.70;69.00;;;;;;5087403;28;20452;-62
2023/05/24 02:11:17;;;;;;;12.97;6.10;;;14.70;69.10;;;;;;5082200;28;20459;-62
2023/05/24 02:13:51;;;;;;;11.90;6.77;;;14.70;69.20;;;;;;5086092;28;20484;-62
2023/05/24 02:16:25;;;;;;;18.60;7.07;;;14.60;69.20;;;;;;5089786;28;20478;-62
2023/05/24 02:18:56;;;;;;;12.87;6.40;;;14.60;69.40;;;;;;5084722;28;21082;-62
2023/05/24 02:21:33;;;;;;;12.67;6.90;;;14.60;69.40;;;;;;5103366;28;20471;-62
2023/05/24 02:24:05;;;;;;;10.23;5.73;;;14.60;69.50;;;;;;5088336;28;20476;-62
2023/05/24 02:26:47;;;;;;;15.23;6.50;;;14.60;69.50;;;;;;5084953;28;20558;-62
2023/05/24 02:29:20;;;;;;;14.93;6.13;;;14.60;69.50;;;;;;5081581;28;20466;-62
2023/05/24 02:31:57;;;;;;;16.03;6.00;;;14.60;69.50;;;;;;5087762;28;20768;-62
2023/05/24 02:34:30;;;;;;;13.73;6.77;;;14.60;69.60;;;;;;5089627;28;20455;-62
2023/05/24 02:37:03;;;;;;;11.80;5.53;;;14.60;69.60;;;;;;5088112;28;20467;-63
2023/05/24 02:39:38;;;;;;;14.27;6.30;;;14.60;69.60;;;;;;5087081;28;20456;-62
2023/05/24 02:42:10;;;;;;;12.57;6.17;;;14.60;69.60;;;;;;5086519;28;20459;-62
2023/05/24 02:44:42;;;;;;;12.23;6.77;;;14.50;69.70;;;;;;5084322;28;20484;-62
2023/05/24 02:47:30;;;;;;;16.23;6.10;;;14.50;69.70;;;;;;5089274;28;20451;-62
2023/05/24 02:50:01;;;;;;;16.50;6.20;;;14.50;69.70;;;;;;5088906;28;20595;-63
2023/05/24 02:52:32;;;;;;;10.23;5.30;;;14.60;69.70;;;;;;5082449;28;20555;-62
2023/05/24 02:55:05;;;;;;;16.70;5.93;;;14.60;69.80;;;;;;5087001;28;20553;-62
2023/05/24 02:57:40;;;;;;;11.13;5.90;;;14.50;69.70;;;;;;5083165;28;20480;-62
2023/05/24 03:00:21;;;;;;;15.60;6.50;;;14.50;69.80;;;;;;5083982;28;20470;-62
2023/05/24 03:03:01;;;;;;;13.47;5.77;;;14.50;69.80;;;;;;5088226;28;20453;-62
2023/05/24 03:05:32;;;;;;;10.27;5.23;;;14.60;69.80;;;;;;5084075;28;20502;-62
2023/05/24 03:08:05;;;;;;;13.57;6.50;;;14.50;69.80;;;;;;5085316;28;20453;-62
2023/05/24 03:10:37;;;;;;;16.87;6.00;;;14.50;69.80;;;;;;5088845;28;20454;-62
2023/05/24 03:13:16;;;;;;;13.90;6.17;;;14.50;69.80;;;;;;5080844;28;20460;-62
2023/05/24 03:15:57;;;;;;;16.90;6.30;;;14.50;69.80;;;;;;5088252;28;20500;-62
2023/05/24 03:18:33;;;;;;;11.70;5.30;;;14.50;69.80;;;;;;5087614;28;20498;-62
2023/05/24 03:21:10;;;;;;;12.47;5.60;;;14.50;69.80;;;;;;5085588;28;20457;-62
2023/05/24 03:23:46;;;;;;;11.37;6.37;;;14.60;69.80;;;;;;5085665;28;21007;-62
2023/05/24 03:26:19;;;;;;;15.80;6.63;;;14.50;69.70;;;;;;5081633;28;20463;-62
2023/05/24 03:29:01;;;;;;;18.60;6.20;;;14.50;69.70;;;;;;5082756;28;20451;-62
2023/05/24 03:31:38;;;;;;;14.00;6.00;;;14.50;69.60;;;;;;5085669;28;20491;-62
2023/05/24 03:34:12;;;;;;;12.47;5.30;;;14.60;69.60;;;;;;5086779;28;20477;-62
2023/05/24 03:36:45;;;;;;;11.77;5.57;;;14.50;69.50;;;;;;5087139;28;20471;-62
2023/05/24 03:39:17;;;;;;;12.30;5.47;;;14.60;69.40;;;;;;5085609;28;20461;-62
2023/05/24 03:42:04;;;;;;;12.23;6.27;;;14.60;69.40;;;;;;5084279;28;20474;-62
2023/05/24 03:44:46;;;;;;;13.37;5.73;;;14.50;69.50;;;;;;5084642;28;20468;-62
2023/05/24 03:47:20;;;;;;;12.30;5.37;;;14.50;69.50;;;;;;5102988;28;20469;-63
2023/05/24 03:49:54;;;;;;;14.20;5.33;;;14.50;69.50;;;;;;5085576;28;20496;-62
2023/05/24 03:52:27;;;;;;;22.40;6.17;;;14.50;69.40;;;;;;5080718;28;20467;-62
2023/05/24 03:54:58;;;;;;;12.50;6.57;;;14.50;69.30;;;;;;5086362;28;20465;-62
2023/05/24 03:57:31;;;;;;;10.93;4.90;;;14.50;69.30;;;;;;5082144;28;20465;-62
2023/05/24 04:00:05;;;;;;;10.50;4.60;;;14.50;69.20;;;;;;5088804;28;20545;-62
2023/05/24 04:03:05;;;;;;;15.30;5.30;;;14.50;69.10;;;;;;5046299;28;20478;-62
2023/05/24 04:05:40;;;;;;;16.00;5.80;;;14.50;68.90;;;;;;5043406;28;20496;-62
2023/05/24 04:08:20;;;;;;;17.53;6.40;;;14.40;68.80;;;;;;5023919;28;20469;-62
2023/05/24 04:10:53;;;;;;;17.23;5.40;;;14.40;68.70;;;;;;5040263;28;21049;-62
2023/05/24 04:13:25;;;;;;;15.93;5.37;;;14.30;68.70;;;;;;5033676;28;20458;-63
2023/05/24 04:15:56;;;;;;;9.97;4.40;;;14.30;68.70;;;;;;5028620;28;20511;-62
2023/05/24 04:18:24;;;;;;;15.40;4.80;;;14.30;68.60;;;;;;5045384;28;20556;-62
2023/05/24 04:21:00;;;;;;;14.77;4.60;;;14.30;68.60;;;;;;5037953;28;20476;-63
2023/05/24 04:23:39;;;;;;;18.27;4.83;;;14.30;68.50;;;;;;5042566;28;20460;-63
2023/05/24 04:26:12;;;;;;;14.00;5.40;;;14.30;68.50;;;;;;5044436;28;20508;-63
2023/05/24 04:29:00;;;;;;;18.17;4.73;;;14.40;68.40;;;;;;5027306;28;20578;-63
2023/05/24 04:31:32;;;;;;;14.23;4.67;;;14.40;68.40;;;;;;5037691;28;20539;-62
2023/05/24 04:34:08;;;;;;;13.37;4.53;;;14.40;68.30;;;;;;5043008;28;20470;-63
2023/05/24 04:36:40;;;;;;;13.90;4.77;;;14.40;68.30;;;;;;5033362;28;20496;-62
2023/05/24 04:39:26;;;;;;;11.20;4.23;;;14.40;68.10;;;;;;5044023;28;20554;-63
2023/05/24 04:41:57;;;;;;;12.90;4.30;;;14.40;68.10;;;;;;5085270;28;20457;-63
2023/05/24 04:44:30;;;;;;;12.40;5.13;;;14.40;68.10;;;;;;5087375;28;20575;-62
2023/05/24 04:47:09;;;;;;;14.63;5.23;;;14.50;68.10;;;;;;5084499;28;21005;-62
2023/05/24 04:49:43;;;;;;;22.13;5.13;;;14.50;68.10;;;;;;5085961;28;20453;-63
2023/05/24 04:52:23;;;;;;;9.80;4.43;;;14.60;68.10;;;;;;5081540;28;20531;-63
2023/05/24 04:54:54;;;;;;;13.40;5.10;;;14.60;67.90;;;;;;5086947;28;20589;-63
2023/05/24 04:57:27;;;;;;;12.63;4.50;;;14.60;67.90;;;;;;5084932;28;20480;-63
2023/05/24 04:59:57;;;;;;;12.30;4.40;;;14.60;67.80;;;;;;5084824;28;20550;-62
2023/05/24 05:02:29;;;;;;;12.10;4.13;;;14.60;67.70;;;;;;5082200;28;20488;-63
2023/05/24 05:05:07;;;;;;;14.70;4.70;;;14.60;67.80;;;;;;5087347;28;20489;-63
2023/05/24 05:07:44;;;;;;;11.10;4.10;;;14.60;67.90;;;;;;5085283;28;20549;-62
2023/05/24 05:10:19;;;;;;;16.03;4.73;;;14.60;67.90;;;;;;5081923;28;20467;-61
2023/05/24 05:12:53;;;;;;;19.57;4.60;;;14.60;67.90;;;;;;5086698;28;20456;-61
2023/05/24 05:15:25;;;;;;;19.80;4.90;;;14.70;67.90;;;;;;5087903;28;20441;-61
2023/05/24 05:18:10;;;;;;;15.00;5.13;;;14.70;67.80;;;;;;5081288;28;20437;-62
2023/05/24 05:20:45;;;;;;;12.90;4.50;;;14.80;67.70;;;;;;5086186;28;20502;-62
2023/05/24 05:23:26;;;;;;;15.13;4.23;;;14.80;67.60;;;;;;5082044;28;20475;-61
2023/05/24 05:26:00;;;;;;;17.53;5.17;;;14.60;67.30;;;;;;5083216;28;20476;-61
2023/05/24 05:28:29;;;;;;;14.70;4.90;;;14.50;67.30;;;;;;5081270;28;20470;-61
2023/05/24 05:31:01;;;;;;;20.87;4.93;;;14.50;67.50;;;;;;5082678;28;20489;-61
2023/05/24 05:33:40;;;;;;;12.10;4.30;;;14.50;67.30;;;;;;5081250;28;21290;-61
2023/05/24 05:36:14;;;;;;;24.13;5.27;;;14.40;67.30;;;;;;5089110;28;20536;-61
2023/05/24 05:38:49;;;;;;;13.70;5.20;;;14.30;67.10;;;;;;5085997;28;20487;-61
2023/05/24 05:41:21;;;;;;;14.70;4.60;;;14.10;67.10;;;;;;5083536;28;20468;-61
2023/05/24 05:43:51;;;;;;;12.37;4.50;;;14.00;67.40;;;;;;5090563;28;20465;-62
2023/05/24 05:46:22;;;;;;;14.00;4.67;;;14.10;67.50;;;;;;5090396;28;20494;-61
2023/05/24 05:49:01;;;;;;;17.70;5.33;;;14.00;67.10;;;;;;5087698;28;20469;-61
2023/05/24 05:51:35;;;;;;;18.60;5.43;;;14.00;67.30;;;;;;5084240;28;20496;-61
2023/05/24 05:54:13;;;;;;;12.93;4.50;;;13.90;67.10;;;;;;5089479;28;20522;-61
2023/05/24 05:56:46;;;;;;;21.43;5.30;;;13.80;67.30;;;;;;5086539;28;20476;-61
2023/05/24 05:59:20;;;;;;;20.73;5.43;;;13.90;67.50;;;;;;5082667;28;21164;-61
2023/05/24 06:01:51;;;;;;;13.00;4.67;;;14.00;68.10;;;;;;5088918;28;20538;-62
2023/05/24 06:04:23;;;;;;;16.50;4.30;;;14.70;68.70;;;;;;5087425;28;20453;-62
2023/05/24 06:07:01;;;;;;;12.03;4.10;;;15.50;67.70;;;;;;5087257;28;20481;-62
2023/05/24 06:09:33;;;;;;;11.13;4.57;;;16.10;66.40;;;;;;5089830;28;20789;-61
2023/05/24 06:12:04;;;;;;;17.93;4.73;;;16.30;65.50;;;;;;5088774;28;20462;-62
2023/05/24 06:14:38;;;;;;;13.90;4.70;;;16.70;66.40;;;;;;5089350;28;20467;-62
2023/05/24 06:17:07;;;;;;;13.07;4.43;;;17.10;64.70;;;;;;5090407;28;20462;-61
2023/05/24 06:19:42;;;;;;;10.90;4.33;;;17.10;63.60;;;;;;5088816;28;20547;-61
2023/05/24 06:22:17;;;;;;;14.00;5.13;;;16.80;63.10;;;;;;5088615;28;20455;-61
2023/05/24 06:24:54;;;;;;;17.50;5.00;;;16.40;62.80;;;;;;5090604;28;20451;-61
2023/05/24 06:27:26;;;;;;;15.73;4.43;;;15.90;63.30;;;;;;5089513;28;20956;-62
2023/05/24 06:29:58;;;;;;;13.33;4.80;;;15.70;63.80;;;;;;5089168;28;20797;-61
2023/05/24 06:32:30;;;;;;;14.30;4.90;;;15.70;64.10;;;;;;5087629;28;20479;-62
2023/05/24 06:35:01;;;;;;;13.40;4.70;;;15.60;64.00;;;;;;5089765;28;20919;-61
2023/05/24 06:37:33;;;;;;;18.40;5.20;;;15.60;64.10;;;;;;5088260;28;20461;-62
2023/05/24 06:40:11;;;;;;;13.33;4.70;;;15.40;64.00;;;;;;5090500;28;20918;-62
2023/05/24 06:42:43;;;;;;;17.10;4.33;;;15.30;64.10;;;;;;5089370;28;20449;-61
2023/05/24 06:45:21;;;;;;;12.70;5.20;;;15.20;64.20;;;;;;5090007;28;20478;-61
2023/05/24 06:48:01;;;;;;;17.03;5.37;;;15.00;64.30;;;;;;5088720;28;20878;-61
2023/05/24 06:50:41;;;;;;;22.40;5.23;;;14.80;64.20;;;;;;5088588;28;20457;-61
2023/05/24 06:53:18;;;;;;;15.60;5.50;;;14.60;64.30;;;;;;5089067;28;20480;-62
2023/05/24 06:55:56;;;;;;;16.57;5.30;;;14.40;64.40;;;;;;5090653;28;20799;-61
2023/05/24 06:58:25;;;;;;;15.37;4.90;;;14.20;64.60;;;;;;5088492;28;20453;-62
2023/05/24 07:00:58;;;;;;;17.20;5.20;;;14.20;64.90;;;;;;5089778;28;20909;-62
2023/05/24 07:03:37;;;;;;;18.00;5.17;;;14.10;65.00;;;;;;5089683;28;20812;-61
2023/05/24 07:06:12;;;;;;;11.60;4.63;;;14.10;65.20;;;;;;5088550;28;20540;-62
2023/05/24 07:08:46;;;;;;;17.20;5.10;;;14.20;65.30;;;;;;5089109;28;20462;-61
2023/05/24 07:11:21;;;;;;;17.27;4.70;;;14.30;65.50;;;;;;5088632;28;20452;-62
2023/05/24 07:13:52;;;;;;;18.33;4.87;;;14.50;65.40;;;;;;5087161;28;20484;-62
2023/05/24 07:16:29;;;;;;;11.80;5.00;;;14.60;65.40;;;;;;5089504;28;20796;-62
2023/05/24 07:19:12;;;;;;;15.33;5.10;;;14.70;65.50;;;;;;5086659;28;20550;-62
2023/05/24 07:21:47;;;;;;;12.40;4.70;;;14.70;65.20;;;;;;5086464;28;20451;-62
2023/05/24 07:24:20;;;;;;;12.47;5.00;;;14.80;65.40;;;;;;5088232;28;20835;-62
2023/05/24 07:26:56;;;;;;;19.60;5.03;;;14.90;65.20;;;;;;5087948;28;20478;-61
2023/05/24 07:29:36;;;;;;;23.10;5.30;;;15.00;65.20;;;;;;5089495;28;20449;-62
2023/05/24 07:32:10;;;;;;;11.50;4.67;;;15.20;65.10;;;;;;5085201;28;20471;-61
2023/05/24 07:34:50;;;;;;;14.37;4.57;;;15.20;64.80;;;;;;5088589;28;20469;-62
2023/05/24 07:37:24;;;;;;;20.50;4.87;;;15.20;64.90;;;;;;5089127;28;20763;-61
2023/05/24 07:39:56;;;;;;;12.40;5.07;;;15.30;64.90;;;;;;5089424;28;20976;-61
2023/05/24 07:42:46;;;;;;;15.03;5.10;;;15.30;64.70;;;;;;5087816;28;20454;-62
2023/05/24 07:45:25;;;;;;;15.83;5.70;;;15.30;64.40;;;;;;5087982;28;20545;-61
2023/05/24 07:48:05;;;;;;;13.77;5.23;;;15.30;64.30;;;;;;5088883;28;20474;-61
2023/05/24 07:50:35;;;;;;;18.60;5.20;;;15.20;64.30;;;;;;5086041;28;20938;-61
2023/05/24 07:53:15;;;;;;;19.80;4.53;;;15.20;64.50;;;;;;5088764;28;20470;-62
2023/05/24 07:55:52;;;;;;;12.90;5.33;;;15.30;64.50;;;;;;5086972;28;20531;-61
2023/05/24 07:58:32;;;;;;;15.77;5.10;;;15.40;64.50;;;;;;5087438;28;20524;-62
2023/05/24 08:03:54;;;;;;;24.03;5.20;;;15.50;64.30;;;;;;5087220;28;20452;-61
2023/05/24 08:06:29;;;;;;;11.77;4.77;;;15.60;64.00;;;;;;5086056;28;20890;-62
2023/05/24 08:11:48;;;;;;;16.83;3.90;;;15.60;63.80;;;;;;5084959;28;20491;-61
2023/05/24 08:14:21;;;;;;;12.80;4.93;;;15.50;63.80;;;;;;5087818;28;20452;-61
2023/05/24 08:16:52;;;;;;;14.03;4.17;;;15.60;63.80;;;;;;5084874;28;20536;-62
2023/05/24 08:19:34;;;;;;;15.63;4.30;;;15.60;63.80;;;;;;5085099;28;20934;-61
2023/05/24 08:22:16;;;;;;;15.30;4.57;;;15.60;63.60;;;;;;5085190;28;20754;-61
2023/05/24 08:24:57;;;;;;;17.17;4.87;;;15.50;63.60;;;;;;5084204;28;20470;-61
2023/05/24 08:27:31;;;;;;;13.97;5.03;;;15.50;63.70;;;;;;5088139;28;20600;-62
2023/05/24 08:30:19;;;;;;;13.43;4.30;;;15.50;63.80;;;;;;5085754;28;20749;-62
2023/05/24 08:32:56;;;;;;;14.00;4.87;;;15.50;63.50;;;;;;5087913;28;21315;-61
2023/05/24 08:35:31;;;;;;;11.47;4.00;;;15.50;63.70;;;;;;5084546;28;20936;-61
2023/05/24 08:38:02;;;;;;;11.60;3.83;;;15.50;63.70;;;;;;5086969;28;20876;-61
2023/05/24 08:40:36;;;;;;;13.30;4.50;;;15.60;63.70;;;;;;5086692;28;20461;-61
2023/05/24 08:43:11;;;;;;;20.67;4.60;;;15.60;63.20;;;;;;5082265;28;20463;-61
2023/05/24 08:46:01;;;;;;;20.00;4.47;;;15.50;63.00;;;;;;5087526;28;20513;-61
2023/05/24 08:48:44;;;;;;;12.43;3.70;;;15.50;63.10;;;;;;5086584;28;20479;-61
2023/05/24 08:51:17;;;;;;;13.53;4.90;;;15.40;62.90;;;;;;5086290;28;20468;-61
2023/05/24 08:53:55;;;;;;;11.40;4.40;;;15.50;63.10;;;;;;5086261;28;20776;-61
2023/05/24 08:56:35;;;;;;;11.13;3.83;;;15.60;63.10;;;;;;5086470;28;20547;-61
2023/05/24 08:59:10;;;;;;;12.27;4.80;;;15.70;62.90;;;;;;5085952;28;20470;-61
2023/05/24 09:01:44;;;;;;;16.70;4.60;;;15.80;62.90;;;;;;5084251;28;20537;-61
2023/05/24 09:04:14;;;;;;;15.07;3.97;;;15.80;62.70;;;;;;5087050;28;20763;-61
2023/05/24 09:06:48;;;;;;;11.13;3.80;;;15.90;62.20;;;;;;5082794;28;20834;-61
2023/05/24 09:09:22;;;;;;;13.20;3.77;;;15.90;62.20;;;;;;5083804;28;21215;-61
2023/05/24 09:12:04;;;;;;;12.97;4.67;;;16.00;62.00;;;;;;5084243;28;20466;-61
2023/05/24 09:14:35;;;;;;;10.40;3.90;;;16.10;62.10;;;;;;5087234;28;20460;-61
2023/05/24 09:17:20;;;;;;;16.20;3.63;;;16.20;61.60;;;;;;5087384;28;20983;-61
2023/05/24 09:19:52;;;;;;;15.93;4.10;;;16.30;61.20;;;;;;5084196;28;20466;-61
2023/05/24 09:22:33;;;;;;;14.13;4.47;;;16.10;61.00;;;;;;5079761;28;20586;-62
2023/05/24 09:25:10;;;;;;;11.70;4.10;;;16.00;60.80;;;;;;5086268;28;20462;-61
2023/05/24 09:27:49;;;;;;;13.00;4.53;;;15.90;61.00;;;;;;5086693;28;20501;-60
2023/05/24 09:30:22;;;;;;;17.97;3.73;;;15.90;60.90;;;;;;5086281;28;20457;-61
2023/05/24 09:33:07;;;;;;;11.77;3.53;;;15.90;61.10;;;;;;5081899;28;20491;-61
2023/05/24 09:35:45;;;;;;;9.43;3.20;;;16.10;61.20;;;;;;5086382;28;20465;-61
2023/05/24 09:38:19;;;;;;;12.23;3.73;;;16.00;60.90;;;;;;5087292;28;20471;-61
2023/05/24 09:41:01;;;;;;;7.57;2.90;;;16.00;61.00;;;;;;5087347;28;20867;-61
2023/05/24 09:43:52;;;;;;;13.07;3.23;;;16.20;60.90;;;;;;5085043;28;20695;-61
2023/05/24 09:46:25;;;;;;;15.03;3.57;;;16.30;60.60;;;;;;5085432;28;20452;-61
2023/05/24 09:49:19;;;;;;;9.70;3.03;;;16.30;60.70;;;;;;5084576;28;20499;-62
2023/05/24 09:51:55;;;;;;;12.67;3.13;;;16.40;60.40;;;;;;5084335;28;20472;-61
2023/05/24 09:54:31;;;;;;;11.93;3.33;;;16.40;59.90;;;;;;5083743;28;20482;-61
2023/05/24 09:57:06;;;;;;;11.87;3.70;;;16.30;59.60;;;;;;5085747;28;20934;-60
2023/05/24 09:59:41;;;;;;;32.00;3.60;;;16.30;59.70;;;;;;5084423;28;20807;-60
2023/05/24 10:02:13;;;;;;;10.53;3.20;;;16.30;59.30;;;;;;5085695;28;20471;-60
2023/05/24 10:04:47;;;;;;;11.93;3.20;;;16.20;59.10;;;;;;5087258;28;20458;-60
2023/05/24 10:07:30;;;;;;;14.13;3.27;;;16.20;59.10;;;;;;5084907;28;20797;-61
2023/05/24 10:10:06;;;;;;;9.77;2.87;;;16.20;58.90;;;;;;5086197;28;20995;-60
2023/05/24 10:12:42;;;;;;;9.17;2.70;;;16.20;58.70;;;;;;5077929;28;20464;-60
2023/05/24 10:15:17;;;;;;;11.33;3.00;;;16.20;58.60;;;;;;5078205;28;20452;-61
2023/05/24 10:17:54;;;;;;;8.40;3.10;;;16.10;58.20;;;;;;5082401;28;20465;-61
2023/05/24 10:20:42;;;;;;;13.43;3.40;;;16.20;58.50;;;;;;5083428;28;20467;-61
2023/05/24 10:26:34;;;;;;;11.70;3.30;;;16.30;57.80;;;;;;5089351;28;20477;-61
2023/05/24 10:29:11;;;;;;;16.10;3.73;;;16.30;57.70;;;;;;5080357;28;20506;-61
2023/05/24 10:31:44;;;;;;;9.87;2.87;;;16.20;57.30;;;;;;5084750;28;20834;-61
2023/05/24 10:34:19;;;;;;;11.93;3.13;;;16.10;56.60;;;;;;5080786;28;20975;-61
2023/05/24 10:36:58;;;;;;;12.57;3.10;;;16.00;56.90;;;;;;5066756;28;20474;-61
2023/05/24 10:39:36;;;;;;;14.47;2.70;;;16.10;56.90;;;;;;5082681;28;20464;-65
2023/05/24 10:42:27;;;;;;;15.47;3.67;;;16.20;56.90;;;;;;5066039;28;20534;-61
2023/05/24 10:48:40;;;;;;;9.40;2.60;;;16.40;56.70;;;;;;5064952;28;20471;-61
2023/05/24 10:51:36;;;;;;;10.57;3.10;;;16.50;56.90;;;;;;5066841;28;20896;-61
2023/05/24 10:57:24;;;;;;;8.87;2.73;;;16.50;56.40;;;;;;5065194;28;20461;-61
2023/05/24 10:59:59;;;;;;;12.63;2.77;;;16.50;56.70;;;;;;5064922;28;20994;-61
2023/05/24 11:02:40;;;;;;;12.73;3.07;;;16.50;56.50;;;;;;5062243;28;20560;-61
2023/05/24 11:05:14;;;;;;;11.57;3.60;;;16.50;56.50;;;;;;5068392;28;20537;-61
2023/05/24 11:07:58;;;;;;;11.20;3.10;;;16.50;56.40;;;;;;5063889;28;20470;-61
2023/05/24 11:10:41;;;;;;;13.33;2.90;;;16.40;56.40;;;;;;5066198;28;20469;-60
2023/05/24 11:13:23;;;;;;;11.23;3.20;;;16.50;56.20;;;;;;5065806;28;20460;-61
2023/05/24 11:16:00;;;;;;;18.97;3.63;;;16.60;56.30;;;;;;5065045;28;20482;-61
2023/05/24 11:18:37;;;;;;;9.00;3.30;;;16.60;56.20;;;;;;5062332;28;20459;-61
2023/05/24 11:21:13;;;;;;;18.00;3.40;;;16.40;56.00;;;;;;5064885;28;20460;-60
2023/05/24 11:23:46;;;;;;;13.93;3.67;;;16.20;55.90;;;;;;5064910;28;20616;-61
2023/05/24 11:26:31;;;;;;;9.47;3.30;;;16.20;56.00;;;;;;5066597;28;20464;-61
2023/05/24 11:29:05;;;;;;;7.90;2.93;;;16.10;55.80;;;;;;5065126;28;20508;-61
2023/05/24 11:31:38;;;;;;;8.80;3.53;;;16.10;55.70;;;;;;5061979;28;21049;-61
2023/05/24 11:34:16;;;;;;;11.60;3.27;;;16.10;55.70;;;;;;5062248;28;20543;-61
2023/05/24 11:36:47;;;;;;;12.00;3.43;;;16.20;55.80;;;;;;5067048;28;20485;-61
2023/05/24 11:39:19;;;;;;;12.07;3.00;;;16.20;55.60;;;;;;5066679;28;20632;-61
2023/05/24 11:41:55;;;;;;;11.30;3.03;;;16.10;55.40;;;;;;5058830;28;20542;-61
2023/05/24 11:44:31;;;;;;;8.07;2.87;;;16.10;55.10;;;;;;5063464;28;20970;-61
2023/05/24 11:47:04;;;;;;;9.60;3.03;;;16.10;55.10;;;;;;5063775;28;20459;-61
2023/05/24 11:49:44;;;;;;;12.13;3.77;;;16.10;55.10;;;;;;5064615;28;20499;-61
2023/05/24 11:52:17;;;;;;;10.77;2.80;;;16.10;55.20;;;;;;5062986;28;20461;-61
2023/05/24 11:54:54;;;;;;;12.20;3.10;;;16.10;55.30;;;;;;5062864;28;20549;-61
2023/05/24 11:57:40;;;;;;;12.40;3.40;;;16.20;55.40;;;;;;5061843;28;20476;-61
2023/05/24 12:00:16;;;;;;;10.50;2.97;;;16.30;55.60;;;;;;5063234;28;20465;-61
2023/05/24 12:02:49;;;;;;;11.00;3.00;;;16.40;55.50;;;;;;5062911;28;20438;-61
2023/05/24 12:05:24;;;;;;;11.60;3.13;;;16.40;55.50;;;;;;5064511;28;20457;-61
2023/05/24 12:08:09;;;;;;;14.47;3.60;;;16.40;55.60;;;;;;5066338;28;20483;-61
2023/05/24 12:10:53;;;;;;;9.50;3.37;;;16.50;55.60;;;;;;5064874;28;20570;-61
2023/05/24 12:13:29;;;;;;;12.60;3.70;;;16.60;55.60;;;;;;5063440;28;20461;-61
2023/05/24 12:16:06;;;;;;;13.10;3.30;;;16.60;55.70;;;;;;5067093;28;20472;-62
2023/05/24 12:18:36;;;;;;;16.60;4.47;;;16.70;55.70;;;;;;5065621;28;20460;-61
2023/05/24 12:21:26;;;;;;;8.10;2.97;;;16.70;55.60;;;;;;5063944;28;20450;-61
2023/05/24 12:23:59;;;;;;;11.00;3.70;;;16.70;55.70;;;;;;5066797;28;20453;-61
2023/05/24 12:26:29;;;;;;;13.77;3.53;;;16.70;55.80;;;;;;5062204;28;21095;-61
2023/05/24 12:29:08;;;;;;;11.80;4.20;;;16.80;55.90;;;;;;5063766;28;20492;-61
2023/05/24 12:31:44;;;;;;;14.00;3.80;;;16.90;56.00;;;;;;5060818;28;20497;-61
2023/05/24 12:34:16;;;;;;;12.07;3.30;;;17.00;56.00;;;;;;5066900;28;20906;-61
2023/05/24 12:36:47;;;;;;;11.33;3.77;;;17.00;55.80;;;;;;5063217;28;20462;-61
2023/05/24 12:39:29;;;;;;;9.43;3.50;;;17.00;55.90;;;;;;5061045;28;20500;-61
2023/05/24 12:42:02;;;;;;;11.53;3.43;;;17.10;56.00;;;;;;5064267;28;20465;-61
2023/05/24 12:44:44;;;;;;;9.97;3.70;;;17.10;56.10;;;;;;5065584;28;20453;-61
2023/05/24 12:47:22;;;;;;;10.33;3.47;;;17.20;56.10;;;;;;5065456;28;20461;-61
2023/05/24 12:49:54;;;;;;;8.87;2.90;;;17.20;56.00;;;;;;5066081;28;20470;-61
2023/05/24 12:52:33;;;;;;;10.80;2.97;;;17.30;56.10;;;;;;5062818;28;21283;-61
2023/05/24 12:55:11;;;;;;;11.50;3.43;;;17.40;56.10;;;;;;5066148;28;20476;-61
2023/05/24 12:57:51;;;;;;;12.83;4.80;;;17.50;56.00;;;;;;5065236;28;20453;-61
2023/05/24 13:00:43;;;;;;;18.07;3.90;;;17.40;55.40;;;;;;5063259;28;20476;-61
2023/05/24 13:03:18;;;;;;;10.80;3.50;;;17.40;55.40;;;;;;5064985;28;20539;-61
2023/05/24 13:05:52;;;;;;;9.23;2.57;;;17.30;55.20;;;;;;5067158;28;21091;-61
2023/05/24 13:08:27;;;;;;;8.17;3.30;;;17.40;55.10;;;;;;5066990;28;20559;-61
2023/05/24 13:11:00;;;;;;;15.73;3.60;;;17.30;54.60;;;;;;5066439;28;20481;-61
2023/05/24 13:13:43;;;;;;;13.53;3.57;;;17.40;54.50;;;;;;5067029;28;20453;-61
2023/05/24 13:16:18;;;;;;;11.37;3.03;;;17.40;54.20;;;;;;5065357;28;20798;-61
2023/05/24 13:18:47;;;;;;;11.00;3.33;;;17.40;54.10;;;;;;5065253;28;20537;-61
2023/05/24 13:21:20;;;;;;;15.33;3.47;;;17.50;53.90;;;;;;5065038;28;20462;-61
2023/05/24 13:23:54;;;;;;;10.47;3.20;;;17.40;53.40;;;;;;5065665;28;20464;-61
2023/05/24 13:26:29;;;;;;;10.20;3.50;;;17.50;53.40;;;;;;5067904;28;20888;-61
2023/05/24 13:29:02;;;;;;;9.80;3.40;;;17.50;53.20;;;;;;5063231;28;20458;-61
2023/05/24 13:31:49;;;;;;;11.17;3.30;;;17.60;53.40;;;;;;5067645;28;20475;-61
2023/05/24 13:34:25;;;;;;;13.00;6.00;;;17.60;53.50;;;;;;5066072;28;20492;-61
2023/05/24 13:36:58;;;;;;;16.70;6.60;;;17.70;53.50;;;;;;5063066;28;20452;-61
2023/05/24 13:39:34;;;;;;;17.00;6.30;;;17.60;53.50;;;;;;5067537;28;20561;-60
2023/05/24 13:42:11;;;;;;;9.60;3.83;;;17.60;53.40;;;;;;5063711;28;20486;-61
2023/05/24 13:44:46;;;;;;;13.60;3.73;;;17.60;53.40;;;;;;5066331;28;20460;-61